Time;durP1;ratioP1;P1;durP2;ratioP2;P2;SDS_P1;SDS_P2;PMS_P1;PMS_P2;Temp;Humidity;BMP_temperature;BMP_pressure;BME280_temperature;BME280_humidity;BME280_pressure;Samples;Min_cycle;Max_cycle;Signal;HPM_P1;HPM_P2
2021/06/02 00:02:02;;;;;;;8.13;4.20;;;9.60;99.90;;;;;;5055418;28;20100;-75
2021/06/02 00:04:30;;;;;;;5.40;3.77;;;9.60;99.90;;;;;;5055239;28;20446;-75
2021/06/02 00:07:09;;;;;;;6.07;3.80;;;9.50;99.90;;;;;;5055174;28;20454;-75
2021/06/02 00:09:35;;;;;;;9.80;3.67;;;9.40;99.90;;;;;;5055351;28;20055;-75
2021/06/02 00:12:03;;;;;;;13.77;4.30;;;9.40;99.90;;;;;;5054812;28;20017;-75
2021/06/02 00:14:29;;;;;;;5.47;3.50;;;9.40;99.90;;;;;;5054996;28;20535;-75
2021/06/02 00:16:57;;;;;;;6.63;4.00;;;9.40;99.90;;;;;;5055234;28;20013;-75
2021/06/02 00:19:23;;;;;;;8.17;4.00;;;9.30;99.90;;;;;;5054615;28;20036;-75
2021/06/02 00:21:49;;;;;;;9.87;3.80;;;9.20;99.90;;;;;;5046549;28;20100;-75
2021/06/02 00:24:15;;;;;;;7.60;3.60;;;9.20;99.90;;;;;;5033630;28;20112;-75
2021/06/02 00:26:42;;;;;;;6.43;3.60;;;9.20;99.90;;;;;;5033088;28;20045;-75
2021/06/02 00:29:11;;;;;;;5.47;3.10;;;9.10;99.90;;;;;;5046291;28;20059;-75
2021/06/02 00:31:43;;;;;;;5.53;3.60;;;9.10;99.90;;;;;;5054541;28;20032;-75
2021/06/02 00:34:09;;;;;;;10.60;3.87;;;9.10;99.90;;;;;;5054721;28;20025;-75
2021/06/02 00:36:39;;;;;;;7.93;3.80;;;9.10;99.90;;;;;;5050751;28;20104;-75
2021/06/02 00:39:07;;;;;;;6.53;3.70;;;9.00;99.90;;;;;;5034590;28;20021;-75
2021/06/02 00:41:35;;;;;;;5.90;3.43;;;9.00;99.90;;;;;;5034333;28;20079;-75
2021/06/02 00:44:04;;;;;;;5.00;4.00;;;9.00;99.90;;;;;;5032862;28;20025;-75
2021/06/02 00:46:31;;;;;;;6.87;3.93;;;8.90;99.90;;;;;;5034531;28;20108;-75
2021/06/02 00:49:00;;;;;;;9.30;3.77;;;8.90;99.90;;;;;;5034074;28;20128;-75
2021/06/02 00:51:26;;;;;;;6.77;4.73;;;8.90;99.90;;;;;;5034216;28;20049;-75
2021/06/02 00:53:54;;;;;;;6.13;3.97;;;8.90;99.90;;;;;;5032587;28;20076;-75
2021/06/02 00:56:28;;;;;;;5.83;4.13;;;8.90;99.90;;;;;;5034212;28;20097;-75
2021/06/02 00:58:58;;;;;;;7.10;3.92;;;8.80;99.90;;;;;;5034029;28;20025;-75
2021/06/02 01:01:25;;;;;;;5.53;4.20;;;8.80;99.90;;;;;;5034140;28;20402;-75
2021/06/02 01:03:51;;;;;;;5.77;3.87;;;8.80;99.90;;;;;;5032472;28;20378;-75
2021/06/02 01:06:18;;;;;;;5.87;4.10;;;8.80;99.90;;;;;;5034690;28;20033;-74
2021/06/02 01:08:45;;;;;;;6.67;4.30;;;8.80;99.90;;;;;;5054074;28;20159;-75
2021/06/02 01:11:11;;;;;;;7.07;4.53;;;8.80;99.90;;;;;;5053522;28;20066;-75
2021/06/02 01:13:42;;;;;;;6.83;4.07;;;8.80;99.90;;;;;;5052279;28;20116;-74
2021/06/02 01:16:08;;;;;;;6.57;4.10;;;8.80;99.90;;;;;;5053812;28;20104;-75
2021/06/02 01:18:35;;;;;;;5.37;4.10;;;8.70;99.90;;;;;;5054311;28;20392;-74
2021/06/02 01:21:02;;;;;;;5.83;4.00;;;8.70;99.90;;;;;;5053666;28;20055;-75
2021/06/02 01:23:28;;;;;;;7.30;4.33;;;8.60;99.90;;;;;;5053424;28;20025;-75
2021/06/02 01:25:54;;;;;;;5.30;4.03;;;8.60;99.90;;;;;;5052051;28;20055;-80
2021/06/02 01:28:19;;;;;;;7.77;4.47;;;8.60;99.90;;;;;;5049888;28;20464;-80
2021/06/02 01:30:45;;;;;;;5.37;3.80;;;8.60;99.90;;;;;;5050216;28;20121;-80
2021/06/02 01:33:28;;;;;;;6.37;4.03;;;8.50;99.90;;;;;;5050554;28;20020;-80
2021/06/02 01:36:04;;;;;;;11.20;4.43;;;8.50;99.90;;;;;;5049883;28;20021;-80
2021/06/02 01:39:01;;;;;;;7.53;4.40;;;8.40;99.90;;;;;;5048709;28;20025;-79
2021/06/02 01:41:43;;;;;;;5.87;4.33;;;8.40;99.90;;;;;;5048827;28;20017;-80
2021/06/02 01:44:44;;;;;;;6.43;4.40;;;8.30;99.90;;;;;;5050446;28;20029;-79
2021/06/02 01:47:43;;;;;;;4.90;4.07;;;8.30;99.90;;;;;;5050887;28;20461;-80
2021/06/02 01:50:20;;;;;;;8.53;4.23;;;8.20;99.90;;;;;;5050878;28;20025;-80
2021/06/02 01:52:58;;;;;;;5.63;4.10;;;8.20;99.90;;;;;;5050737;28;20033;-80
2021/06/02 01:56:10;;;;;;;5.73;4.20;;;8.10;99.90;;;;;;5049542;28;20013;-80
2021/06/02 01:58:53;;;;;;;8.37;5.00;;;8.10;99.90;;;;;;5050249;28;20490;-80
2021/06/02 02:01:41;;;;;;;6.50;4.10;;;8.00;99.90;;;;;;5049416;28;20103;-80
2021/06/02 02:04:25;;;;;;;8.97;4.50;;;8.00;99.90;;;;;;5046202;28;20433;-80
2021/06/02 02:07:19;;;;;;;10.47;4.50;;;8.00;99.90;;;;;;5049917;28;20020;-79
2021/06/02 02:10:05;;;;;;;5.97;4.63;;;7.90;99.90;;;;;;5050494;28;20485;-79
2021/06/02 02:12:56;;;;;;;9.57;4.37;;;7.90;99.90;;;;;;5050533;28;20040;-79
2021/06/02 02:15:47;;;;;;;8.67;4.33;;;7.80;99.90;;;;;;5050088;28;20013;-80
2021/06/02 02:18:28;;;;;;;5.53;4.30;;;7.80;99.90;;;;;;5049700;28;20025;-80
2021/06/02 02:21:00;;;;;;;6.60;4.27;;;7.80;99.90;;;;;;5035943;28;20020;-79
2021/06/02 02:23:38;;;;;;;9.47;4.50;;;7.80;99.90;;;;;;5049670;28;20477;-79
2021/06/02 02:26:22;;;;;;;7.67;4.23;;;7.70;99.90;;;;;;5049428;28;20021;-80
2021/06/02 02:29:26;;;;;;;10.90;4.50;;;7.70;99.90;;;;;;5049639;28;20041;-79
2021/06/02 02:32:14;;;;;;;6.00;4.33;;;7.70;99.90;;;;;;5048251;28;20041;-80
2021/06/02 02:34:56;;;;;;;8.83;4.73;;;7.60;99.90;;;;;;5049460;28;20370;-79
2021/06/02 02:37:47;;;;;;;8.33;4.43;;;7.60;99.90;;;;;;5049513;28;20119;-80
2021/06/02 02:40:24;;;;;;;9.17;4.50;;;7.50;99.90;;;;;;5049535;28;20025;-79
2021/06/02 02:43:05;;;;;;;5.47;4.57;;;7.50;99.90;;;;;;5049198;28;20026;-80
2021/06/02 02:45:41;;;;;;;9.97;4.73;;;7.50;99.90;;;;;;5048759;28;20021;-80
2021/06/02 02:48:19;;;;;;;9.37;4.90;;;7.50;99.90;;;;;;5049886;28;20420;-79
2021/06/02 02:51:01;;;;;;;10.10;4.50;;;7.40;99.90;;;;;;5049517;28;20029;-80
2021/06/02 02:53:54;;;;;;;6.83;4.40;;;7.40;99.90;;;;;;5041808;28;20434;-79
2021/06/02 02:56:30;;;;;;;8.60;4.97;;;7.40;99.90;;;;;;5054049;28;20021;-79
2021/06/02 02:59:14;;;;;;;11.83;5.23;;;7.30;99.90;;;;;;5041951;28;20413;-80
2021/06/02 03:02:02;;;;;;;14.52;5.40;;;7.30;99.90;;;;;;5053761;28;20047;-79
2021/06/02 03:04:34;;;;;;;10.60;4.80;;;7.20;99.90;;;;;;5053555;28;20421;-79
2021/06/02 03:07:03;;;;;;;11.63;5.07;;;7.20;99.90;;;;;;5052729;28;20106;-80
2021/06/02 03:09:49;;;;;;;9.27;4.73;;;7.20;99.90;;;;;;5053907;28;20116;-79
2021/06/02 03:12:24;;;;;;;10.60;5.22;;;7.20;99.90;;;;;;5043063;28;20037;-79
2021/06/02 03:15:01;;;;;;;8.27;4.70;;;7.20;99.90;;;;;;5054395;28;20775;-80
2021/06/02 03:17:41;;;;;;;9.43;4.70;;;7.10;99.90;;;;;;5054217;28;20066;-79
2021/06/02 03:20:18;;;;;;;6.30;4.77;;;7.00;99.90;;;;;;5054248;28;20029;-80
2021/06/02 03:23:11;;;;;;;10.00;4.63;;;7.00;99.90;;;;;;5048567;28;20029;-79
2021/06/02 03:25:57;;;;;;;8.00;5.10;;;7.00;99.90;;;;;;5053607;28;20457;-79
2021/06/02 03:28:56;;;;;;;6.68;4.47;;;7.00;99.90;;;;;;5053583;28;20074;-79
2021/06/02 03:31:47;;;;;;;9.97;5.03;;;6.90;99.90;;;;;;5040692;28;20504;-80
2021/06/02 03:34:43;;;;;;;9.93;4.80;;;6.90;99.90;;;;;;5050045;28;20013;-80
2021/06/02 03:38:02;;;;;;;7.80;4.60;;;6.90;99.90;;;;;;5051139;28;20051;-80
2021/06/02 03:41:10;;;;;;;9.03;6.27;;;6.90;99.90;;;;;;5024812;28;20467;-79
2021/06/02 03:43:45;;;;;;;12.80;7.13;;;6.90;99.90;;;;;;5021569;28;20112;-79
2021/06/02 03:46:17;;;;;;;15.75;7.82;;;6.90;99.90;;;;;;5045169;28;20430;-79
2021/06/02 03:48:58;;;;;;;11.77;6.37;;;6.90;99.90;;;;;;5052667;28;20089;-79
2021/06/02 03:51:58;;;;;;;11.83;7.80;;;6.90;99.90;;;;;;5053323;28;20033;-79
2021/06/02 03:54:36;;;;;;;10.23;6.67;;;6.90;99.90;;;;;;5048695;28;20048;-80
2021/06/02 03:57:05;;;;;;;11.40;5.83;;;6.90;99.90;;;;;;5053820;28;20117;-80
2021/06/02 03:59:55;;;;;;;9.30;6.47;;;7.00;99.90;;;;;;5052863;28;20044;-79
2021/06/02 04:02:39;;;;;;;10.13;6.00;;;7.00;99.90;;;;;;5053191;28;20041;-79
2021/06/02 04:05:38;;;;;;;14.03;7.90;;;7.00;99.90;;;;;;5050825;28;20025;-79
2021/06/02 04:08:33;;;;;;;14.40;7.63;;;7.10;99.90;;;;;;5052948;28;20466;-79
2021/06/02 04:11:04;;;;;;;10.57;6.97;;;7.10;99.90;;;;;;5043363;28;20025;-81
2021/06/02 04:13:54;;;;;;;13.77;6.87;;;7.20;99.90;;;;;;5051755;28;20377;-79
2021/06/02 04:16:23;;;;;;;9.67;5.70;;;7.20;99.90;;;;;;5050353;28;20024;-80
2021/06/02 04:18:51;;;;;;;10.03;5.77;;;7.20;99.90;;;;;;5047999;28;20024;-79
2021/06/02 04:21:22;;;;;;;14.63;5.77;;;7.30;99.90;;;;;;5052098;28;20031;-80
2021/06/02 04:23:49;;;;;;;11.63;5.80;;;7.30;99.90;;;;;;5043494;28;20371;-80
2021/06/02 04:26:15;;;;;;;9.80;5.30;;;7.40;99.90;;;;;;5049103;28;20254;-80
2021/06/02 04:28:42;;;;;;;8.27;5.13;;;7.40;99.90;;;;;;5045068;28;20061;-80
2021/06/02 04:31:10;;;;;;;10.47;6.00;;;7.50;99.90;;;;;;5049629;28;20025;-80
2021/06/02 04:33:37;;;;;;;9.97;5.50;;;7.50;99.90;;;;;;5046591;28;20461;-80
2021/06/02 04:36:04;;;;;;;9.53;5.97;;;7.60;99.90;;;;;;5051163;28;20017;-80
2021/06/02 04:38:31;;;;;;;10.40;5.73;;;7.60;99.90;;;;;;5049231;28;20103;-80
2021/06/02 04:40:59;;;;;;;9.90;5.97;;;7.70;99.90;;;;;;5044760;28;20029;-80
2021/06/02 04:43:26;;;;;;;7.73;5.10;;;7.80;99.90;;;;;;5041173;28;20021;-80
2021/06/02 04:45:57;;;;;;;7.87;5.43;;;7.90;99.90;;;;;;5037519;28;20025;-79
2021/06/02 04:48:24;;;;;;;6.67;4.53;;;8.00;99.90;;;;;;5041505;28;20032;-80
2021/06/02 04:51:21;;;;;;;11.57;5.50;;;8.20;99.90;;;;;;5040049;28;20473;-80
2021/06/02 04:54:19;;;;;;;11.33;5.53;;;8.40;99.90;;;;;;5048782;28;20017;-80
2021/06/02 04:57:29;;;;;;;6.93;5.43;;;8.50;99.90;;;;;;5048533;28;20028;-80
2021/06/02 05:00:04;;;;;;;12.43;5.27;;;8.70;99.90;;;;;;5049825;28;20024;-80
2021/06/02 05:03:14;;;;;;;8.75;5.53;;;8.90;99.90;;;;;;5041487;28;20056;-79
2021/06/02 05:06:17;;;;;;;9.87;6.33;;;9.00;99.90;;;;;;5023831;28;20490;-80
2021/06/02 05:08:55;;;;;;;10.17;6.77;;;9.10;99.90;;;;;;5049581;28;20044;-74
2021/06/02 05:12:03;;;;;;;10.93;6.50;;;9.20;99.90;;;;;;5040622;28;20152;-78
2021/06/02 05:14:44;;;;;;;8.60;6.27;;;9.40;99.90;;;;;;5049566;28;20128;-77
2021/06/02 05:17:22;;;;;;;9.47;6.00;;;9.50;99.90;;;;;;5049864;28;20078;-75
2021/06/02 05:20:37;;;;;;;11.50;6.17;;;9.70;99.90;;;;;;5053933;28;20083;-75
2021/06/02 05:23:31;;;;;;;11.63;6.70;;;9.90;99.90;;;;;;5038653;28;20031;-79
2021/06/02 05:26:06;;;;;;;15.13;6.10;;;10.20;99.90;;;;;;5049859;28;20737;-79
2021/06/02 05:29:08;;;;;;;13.63;6.38;;;10.40;99.90;;;;;;5052651;28;20044;-74
2021/06/02 05:32:13;;;;;;;16.87;6.60;;;10.70;99.90;;;;;;5053589;28;20025;-77
2021/06/02 05:34:57;;;;;;;13.40;6.27;;;11.00;99.90;;;;;;5050928;28;20044;-74
2021/06/02 05:38:00;;;;;;;12.73;6.10;;;11.20;99.90;;;;;;5033919;28;20025;-68
2021/06/02 05:41:07;;;;;;;9.10;6.63;;;11.40;99.90;;;;;;4999599;28;20038;-68
2021/06/02 05:43:54;;;;;;;13.93;6.72;;;11.70;99.90;;;;;;5014387;28;20034;-68
2021/06/02 05:46:52;;;;;;;8.93;6.60;;;11.90;99.90;;;;;;5033224;28;20028;-69
2021/06/02 05:49:39;;;;;;;13.65;5.95;;;12.20;99.90;;;;;;5033619;28;20500;-68
2021/06/02 05:52:22;;;;;;;10.10;6.18;;;12.50;99.90;;;;;;5033853;28;20049;-69
2021/06/02 05:55:29;;;;;;;14.85;6.78;;;12.70;99.90;;;;;;5033524;28;20032;-69
2021/06/02 05:58:14;;;;;;;11.07;6.60;;;12.80;99.90;;;;;;5033154;28;20455;-68
2021/06/02 06:00:58;;;;;;;12.25;6.13;;;12.90;99.90;;;;;;5033306;28;20063;-68
2021/06/02 06:03:46;;;;;;;15.88;6.00;;;13.00;99.90;;;;;;5033661;28;20021;-69
2021/06/02 06:07:09;;;;;;;10.82;6.18;;;13.10;99.90;;;;;;5033186;28;20014;-69
2021/06/02 06:09:51;;;;;;;21.50;6.90;;;13.30;99.90;;;;;;4991100;28;20026;-69
2021/06/02 06:12:35;;;;;;;9.82;6.15;;;13.50;99.90;;;;;;4999367;28;20044;-77
2021/06/02 06:15:38;;;;;;;8.27;5.30;;;13.60;99.90;;;;;;5029771;28;20374;-74
2021/06/02 06:18:28;;;;;;;8.95;5.15;;;13.70;99.90;;;;;;5048240;28;20109;-72
2021/06/02 06:21:20;;;;;;;11.60;5.22;;;13.80;99.90;;;;;;5032463;28;20025;-75
2021/06/02 06:23:45;;;;;;;8.70;4.80;;;14.00;99.90;;;;;;5032823;28;20025;-72
2021/06/02 06:26:14;;;;;;;12.82;5.00;;;14.00;99.90;;;;;;5031570;28;20030;-72
2021/06/02 06:29:01;;;;;;;6.72;4.32;;;14.20;99.90;;;;;;5036567;28;20056;-72
2021/06/02 06:31:30;;;;;;;7.38;4.15;;;14.40;99.90;;;;;;5037143;28;20418;-71
2021/06/02 06:34:03;;;;;;;6.53;4.05;;;14.50;99.90;;;;;;5036411;28;20033;-71
2021/06/02 06:36:31;;;;;;;8.43;4.80;;;14.60;99.90;;;;;;5037139;28;20052;-71
2021/06/02 06:39:18;;;;;;;7.93;4.20;;;14.60;99.90;;;;;;5037121;28;20019;-71
2021/06/02 06:41:47;;;;;;;6.78;4.05;;;14.70;99.90;;;;;;5036756;28;20469;-70
2021/06/02 06:44:13;;;;;;;8.80;3.88;;;14.90;99.90;;;;;;5035339;28;20032;-70
2021/06/02 06:46:40;;;;;;;10.57;4.18;;;15.00;99.90;;;;;;5035242;28;20025;-73
2021/06/02 06:51:52;;;;;;;6.00;4.15;;;15.10;99.90;;;;;;4995640;28;20070;-71
2021/06/02 06:54:18;;;;;;;5.18;4.15;;;15.30;99.90;;;;;;4994797;28;20022;-73
2021/06/02 06:56:45;;;;;;;7.18;4.22;;;15.30;99.90;;;;;;4993536;28;20038;-76
2021/06/02 06:59:11;;;;;;;6.72;3.90;;;15.30;99.90;;;;;;4984228;28;20053;-76
2021/06/02 07:01:39;;;;;;;6.43;4.18;;;15.50;99.90;;;;;;4991278;28;20044;-77
2021/06/02 07:04:06;;;;;;;9.18;4.05;;;15.50;99.90;;;;;;4991409;28;20034;-77
2021/06/02 07:06:35;;;;;;;7.13;3.90;;;15.50;99.90;;;;;;4987572;28;20034;-77
2021/06/02 07:09:02;;;;;;;5.25;3.80;;;15.60;99.90;;;;;;4990805;28;20189;-77
2021/06/02 07:11:29;;;;;;;9.10;4.40;;;15.70;99.90;;;;;;4990743;28;20042;-77
2021/06/02 07:13:55;;;;;;;8.63;3.70;;;15.70;99.90;;;;;;4969978;28;20050;-74
2021/06/02 07:16:21;;;;;;;5.38;4.28;;;15.90;99.90;;;;;;4986581;28;20371;-74
2021/06/02 07:18:47;;;;;;;6.38;4.20;;;15.70;99.90;;;;;;4986198;28;20089;-73
2021/06/02 07:21:18;;;;;;;7.82;3.80;;;15.60;99.90;;;;;;4979167;28;20034;-74
2021/06/02 07:23:44;;;;;;;6.55;4.03;;;15.70;99.90;;;;;;4991595;28;20045;-77
2021/06/02 07:26:09;;;;;;;5.75;3.75;;;15.80;99.90;;;;;;4992243;28;20038;-72
2021/06/02 07:28:40;;;;;;;5.03;3.60;;;15.90;99.90;;;;;;4996124;28;20037;-73
2021/06/02 07:31:08;;;;;;;6.10;4.05;;;15.90;99.90;;;;;;4996781;28;20034;-72
2021/06/02 07:33:34;;;;;;;10.20;4.50;;;16.10;99.90;;;;;;4990511;28;20339;-74
2021/06/02 07:36:01;;;;;;;6.28;4.00;;;16.10;99.90;;;;;;4992042;28;20176;-74
2021/06/02 07:38:27;;;;;;;8.57;3.50;;;16.00;99.90;;;;;;4988216;28;20022;-73
2021/06/02 07:40:52;;;;;;;6.22;3.63;;;16.20;99.90;;;;;;4990204;28;20049;-77
2021/06/02 07:43:18;;;;;;;6.25;3.45;;;16.20;99.90;;;;;;4992353;28;20038;-74
2021/06/02 07:45:44;;;;;;;10.48;3.72;;;16.30;99.90;;;;;;4987488;28;20035;-74
2021/06/02 07:48:10;;;;;;;10.40;3.72;;;16.40;99.90;;;;;;4992603;28;20068;-73
2021/06/02 07:50:36;;;;;;;8.15;3.00;;;16.60;99.90;;;;;;4995641;28;20464;-76
2021/06/02 07:53:01;;;;;;;8.00;4.05;;;16.70;99.90;;;;;;4996257;28;20471;-72
2021/06/02 07:55:27;;;;;;;5.72;3.85;;;16.70;99.90;;;;;;4994760;28;20030;-72
2021/06/02 07:57:53;;;;;;;5.72;3.83;;;16.80;99.90;;;;;;4996274;28;20094;-71
2021/06/02 08:00:20;;;;;;;8.80;4.40;;;16.90;99.90;;;;;;4991578;28;20023;-76
2021/06/02 08:02:45;;;;;;;7.32;4.18;;;16.90;99.90;;;;;;4994204;28;20368;-74
2021/06/02 08:05:13;;;;;;;7.10;4.35;;;17.00;99.90;;;;;;4985117;28;20046;-72
2021/06/02 08:07:39;;;;;;;7.50;3.80;;;17.00;99.90;;;;;;4974094;28;20045;-72
2021/06/02 08:10:05;;;;;;;7.55;3.97;;;17.10;99.90;;;;;;4977689;28;20085;-72
2021/06/02 08:12:31;;;;;;;6.00;4.18;;;17.20;99.90;;;;;;4975147;28;20046;-72
2021/06/02 08:14:56;;;;;;;8.85;4.70;;;17.10;99.90;;;;;;4977294;28;20037;-72
2021/06/02 08:17:22;;;;;;;10.75;4.25;;;17.10;99.90;;;;;;4993744;28;20026;-74
2021/06/02 08:19:48;;;;;;;7.30;4.10;;;17.20;99.90;;;;;;4991449;28;20037;-72
2021/06/02 08:22:14;;;;;;;7.10;3.70;;;17.20;99.90;;;;;;4989445;28;20715;-72
2021/06/02 08:24:40;;;;;;;6.68;4.30;;;17.20;99.90;;;;;;4991957;28;20492;-74
2021/06/02 08:27:11;;;;;;;5.72;3.95;;;17.20;99.90;;;;;;4991936;28;20019;-74
2021/06/02 08:29:36;;;;;;;8.50;3.75;;;17.30;99.90;;;;;;4985582;28;20050;-71
2021/06/02 08:32:02;;;;;;;6.95;3.65;;;17.50;99.90;;;;;;5009672;23;20057;-72
2021/06/02 08:34:28;;;;;;;9.23;3.70;;;17.50;99.90;;;;;;5009524;28;20034;-72
2021/06/02 08:36:54;;;;;;;8.65;3.80;;;17.60;99.90;;;;;;5009921;28;20088;-72
2021/06/02 08:39:19;;;;;;;5.45;3.70;;;17.70;99.90;;;;;;5026536;28;20022;-72
2021/06/02 08:41:45;;;;;;;8.13;3.60;;;17.80;99.90;;;;;;5021751;28;20025;-72
2021/06/02 08:44:11;;;;;;;5.70;3.47;;;17.90;99.90;;;;;;5013762;28;20030;-72
2021/06/02 08:46:37;;;;;;;6.53;3.28;;;18.00;99.90;;;;;;5021213;28;20028;-71
2021/06/02 08:49:03;;;;;;;9.20;3.85;;;18.10;99.90;;;;;;5007957;28;20092;-76
2021/06/02 08:51:33;;;;;;;7.80;3.15;;;18.20;99.90;;;;;;4994916;28;20047;-77
2021/06/02 08:53:58;;;;;;;5.60;3.53;;;18.20;99.90;;;;;;4996482;28;20036;-81
2021/06/02 08:56:25;;;;;;;5.78;3.15;;;18.30;99.90;;;;;;4997039;28;20112;-81
2021/06/02 08:58:50;;;;;;;6.82;3.65;;;18.30;99.90;;;;;;4998203;28;20526;-81
2021/06/02 09:01:16;;;;;;;6.03;3.83;;;18.40;99.90;;;;;;4998488;28;20036;-79
2021/06/02 09:03:42;;;;;;;7.88;3.80;;;18.50;99.90;;;;;;4995151;28;20038;-79
2021/06/02 09:06:09;;;;;;;6.03;3.30;;;18.50;99.90;;;;;;4994043;28;20247;-79
2021/06/02 09:08:39;;;;;;;5.88;3.55;;;18.60;99.90;;;;;;5011886;28;20033;-79
2021/06/02 09:11:17;;;;;;;6.53;3.67;;;18.70;99.90;;;;;;5010357;28;20060;-79
2021/06/02 09:13:44;;;;;;;5.43;3.20;;;18.80;99.90;;;;;;5008414;28;20526;-79
2021/06/02 09:16:47;;;;;;;6.28;3.42;;;18.90;99.90;;;;;;5011976;28;20041;-73
2021/06/02 09:19:12;;;;;;;7.15;3.78;;;19.00;99.90;;;;;;5000268;28;20022;-72
2021/06/02 09:21:39;;;;;;;5.63;3.45;;;19.00;99.90;;;;;;5014070;28;20056;-72
2021/06/02 09:24:06;;;;;;;6.40;3.20;;;19.10;99.90;;;;;;5013883;28;20041;-72
2021/06/02 09:26:32;;;;;;;8.68;3.75;;;19.10;99.90;;;;;;5012172;28;20030;-78
2021/06/02 09:28:59;;;;;;;4.32;3.22;;;19.30;99.90;;;;;;5021563;28;20368;-78
2021/06/02 09:31:45;;;;;;;5.88;3.22;;;19.50;99.90;;;;;;5006769;28;20065;-79
2021/06/02 09:34:18;;;;;;;5.53;3.00;;;19.80;99.90;;;;;;5008598;28;20756;-80
2021/06/02 09:36:50;;;;;;;6.13;2.75;;;19.90;99.50;;;;;;5011629;28;20358;-76
2021/06/02 09:39:18;;;;;;;3.88;2.58;;;20.20;99.90;;;;;;5013106;28;20018;-78
2021/06/02 09:41:48;;;;;;;8.95;2.95;;;20.30;98.70;;;;;;5008996;28;20603;-80
2021/06/02 09:44:14;;;;;;;6.25;3.22;;;20.60;99.90;;;;;;5013339;28;20056;-79
2021/06/02 09:46:59;;;;;;;6.10;3.50;;;20.80;93.40;;;;;;5028400;28;20037;-81
2021/06/02 09:49:26;;;;;;;5.75;2.95;;;21.00;94.60;;;;;;5011309;28;20065;-79
2021/06/02 09:51:52;;;;;;;7.53;3.20;;;21.20;94.00;;;;;;5011895;28;20088;-79
2021/06/02 09:54:23;;;;;;;6.80;3.38;;;21.40;95.00;;;;;;5012545;28;20494;-78
2021/06/02 09:56:49;;;;;;;6.00;3.08;;;21.60;95.50;;;;;;5007511;28;20030;-79
2021/06/02 09:59:15;;;;;;;8.48;2.83;;;21.70;93.80;;;;;;5009307;28;20026;-79
2021/06/02 10:01:59;;;;;;;4.82;2.92;;;22.00;88.80;;;;;;5012412;28;20026;-80
2021/06/02 10:04:28;;;;;;;8.15;2.92;;;22.30;89.40;;;;;;5010685;28;20715;-80
2021/06/02 10:06:54;;;;;;;7.03;3.15;;;22.60;90.80;;;;;;5010027;28;20100;-78
2021/06/02 10:09:26;;;;;;;6.25;2.75;;;22.90;83.30;;;;;;5004775;28;20029;-78
2021/06/02 10:12:00;;;;;;;8.75;3.38;;;22.90;79.30;;;;;;5008636;28;20457;-78
2021/06/02 10:14:27;;;;;;;11.15;3.42;;;23.30;84.50;;;;;;5005854;28;20084;-78
2021/06/02 10:16:52;;;;;;;6.43;3.10;;;23.50;84.80;;;;;;5007359;28;20030;-78
2021/06/02 10:19:39;;;;;;;6.97;3.13;;;23.40;80.30;;;;;;5005797;28;20105;-78
2021/06/02 10:22:18;;;;;;;5.82;2.95;;;23.60;84.50;;;;;;5011742;28;20018;-78
2021/06/02 10:24:45;;;;;;;4.40;2.53;;;23.70;81.00;;;;;;5009208;28;20041;-77
2021/06/02 10:27:11;;;;;;;5.75;3.15;;;24.00;79.90;;;;;;5011251;28;20038;-76
2021/06/02 10:29:36;;;;;;;8.50;2.95;;;23.90;76.50;;;;;;5011219;28;20032;-78
2021/06/02 10:32:04;;;;;;;4.18;2.95;;;24.10;78.80;;;;;;5007402;28;20520;-78
2021/06/02 10:34:29;;;;;;;6.45;2.90;;;24.10;75.10;;;;;;5009367;28;20455;-82
2021/06/02 10:36:55;;;;;;;4.75;2.80;;;24.10;73.80;;;;;;5006740;28;20022;-81
2021/06/02 10:39:23;;;;;;;11.70;3.22;;;24.30;78.40;;;;;;5009832;28;20022;-81
2021/06/02 10:41:57;;;;;;;4.97;2.38;;;24.60;81.20;;;;;;5007336;28;20555;-81
2021/06/02 10:44:31;;;;;;;6.72;2.50;;;24.80;76.60;;;;;;5009362;28;20025;-81
2021/06/02 10:46:58;;;;;;;4.97;2.30;;;24.80;71.90;;;;;;5006983;28;20812;-81
2021/06/02 10:49:33;;;;;;;8.07;3.00;;;24.60;70.50;;;;;;5008893;28;20391;-82
2021/06/02 10:51:58;;;;;;;5.32;2.40;;;24.80;70.50;;;;;;5007509;28;20030;-81
2021/06/02 10:54:35;;;;;;;5.82;2.25;;;24.80;71.40;;;;;;5010050;28;20730;-81
2021/06/02 10:57:01;;;;;;;6.32;2.30;;;25.10;68.50;;;;;;5007710;28;20387;-81
2021/06/02 10:59:30;;;;;;;4.55;2.30;;;25.10;65.80;;;;;;5008543;28;20029;-81
2021/06/02 11:02:05;;;;;;;7.47;2.22;;;25.00;67.20;;;;;;5008228;28;20060;-81
2021/06/02 11:04:33;;;;;;;3.97;2.10;;;25.10;67.50;;;;;;5010795;28;20494;-81
2021/06/02 11:07:13;;;;;;;3.13;2.00;;;25.20;64.60;;;;;;5005938;28;20061;-81
2021/06/02 11:10:00;;;;;;;4.63;2.40;;;25.20;60.50;;;;;;5009566;28;20042;-81
2021/06/02 11:12:45;;;;;;;3.97;1.90;;;25.30;66.60;;;;;;5008631;28;20030;-82
2021/06/02 11:15:30;;;;;;;3.95;2.10;;;25.50;64.50;;;;;;5007182;28;20379;-81
2021/06/02 11:18:10;;;;;;;5.25;1.95;;;25.80;61.80;;;;;;5007553;28;20359;-73
2021/06/02 11:20:49;;;;;;;9.95;2.30;;;25.80;66.40;;;;;;5016108;28;20517;-73
2021/06/02 11:23:18;;;;;;;6.40;2.42;;;26.10;60.60;;;;;;5014293;28;20105;-81
2021/06/02 11:25:44;;;;;;;4.78;2.15;;;26.10;62.70;;;;;;5029589;28;20026;-81
2021/06/02 11:28:41;;;;;;;4.10;1.90;;;26.00;57.50;;;;;;5012047;28;20026;-81
2021/06/02 11:31:25;;;;;;;3.83;1.83;;;25.80;58.20;;;;;;5009005;28;20529;-81
2021/06/02 11:33:52;;;;;;;3.63;1.92;;;25.80;58.10;;;;;;5010471;28;20038;-81
2021/06/02 11:36:19;;;;;;;4.95;2.08;;;25.70;56.60;;;;;;5012078;28;20120;-81
2021/06/02 11:38:45;;;;;;;3.30;1.98;;;25.70;57.40;;;;;;5007823;28;20117;-82
2021/06/02 11:41:13;;;;;;;3.10;1.80;;;25.90;57.30;;;;;;5010851;28;20221;-82
2021/06/02 11:43:39;;;;;;;4.25;1.95;;;26.20;56.80;;;;;;5013587;28;20119;-81
2021/06/02 11:46:05;;;;;;;4.13;2.05;;;26.30;54.60;;;;;;5008429;28;20041;-80
2021/06/02 11:48:33;;;;;;;6.82;2.30;;;26.10;53.50;;;;;;5011597;28;20021;-81
2021/06/02 11:51:02;;;;;;;4.82;2.38;;;26.20;53.20;;;;;;5011497;28;20100;-79
2021/06/02 11:53:40;;;;;;;2.72;2.10;;;26.10;52.00;;;;;;5009614;28;20061;-78
2021/06/02 11:56:06;;;;;;;8.35;2.30;;;26.30;52.80;;;;;;5011466;28;20062;-80
2021/06/02 11:58:31;;;;;;;6.47;2.50;;;26.50;54.00;;;;;;5012489;28;20053;-79
2021/06/02 12:00:57;;;;;;;4.85;2.45;;;26.40;50.70;;;;;;5014025;28;20327;-80
2021/06/02 12:03:24;;;;;;;8.75;2.88;;;26.60;52.20;;;;;;5014708;28;20501;-79
2021/06/02 12:05:52;;;;;;;3.38;2.15;;;26.50;51.70;;;;;;5012177;28;20053;-79
2021/06/02 12:08:18;;;;;;;4.40;2.20;;;26.30;56.70;;;;;;5015493;28;20024;-79
2021/06/02 12:10:47;;;;;;;4.88;2.08;;;26.60;56.20;;;;;;5014061;28;20473;-77
2021/06/02 12:13:17;;;;;;;2.95;2.10;;;26.50;51.70;;;;;;5014743;28;20018;-78
2021/06/02 12:15:45;;;;;;;4.85;2.10;;;26.50;51.60;;;;;;5011617;28;20021;-78
2021/06/02 12:18:13;;;;;;;3.40;1.90;;;26.40;49.60;;;;;;5014986;28;20028;-78
2021/06/02 12:20:39;;;;;;;3.10;2.00;;;26.70;51.70;;;;;;5014673;28;20025;-78
2021/06/02 12:23:06;;;;;;;5.07;2.08;;;26.70;52.40;;;;;;5013397;28;20413;-78
2021/06/02 12:25:34;;;;;;;3.72;1.98;;;26.90;51.10;;;;;;5013842;28;20022;-78
2021/06/02 12:28:02;;;;;;;2.65;2.00;;;26.70;52.60;;;;;;5014971;28;20018;-78
2021/06/02 12:30:37;;;;;;;3.95;2.30;;;27.00;51.70;;;;;;5015243;28;20028;-78
2021/06/02 12:33:08;;;;;;;6.40;2.40;;;27.20;52.10;;;;;;4995530;28;20046;-78
2021/06/02 12:35:40;;;;;;;3.90;2.15;;;26.80;49.40;;;;;;5014651;28;20021;-78
2021/06/02 12:38:15;;;;;;;10.00;2.70;;;27.00;50.50;;;;;;5012431;28;20022;-72
2021/06/02 12:40:45;;;;;;;8.20;2.22;;;27.20;52.00;;;;;;5012612;28;20017;-72
2021/06/02 12:43:14;;;;;;;5.30;1.90;;;27.20;52.10;;;;;;5019980;28;20044;-73
2021/06/02 12:45:39;;;;;;;2.80;2.00;;;27.30;52.70;;;;;;5015903;28;20026;-75
2021/06/02 12:48:07;;;;;;;6.03;1.92;;;27.40;50.80;;;;;;5011588;28;20018;-73
2021/06/02 12:50:40;;;;;;;5.85;2.22;;;27.50;50.60;;;;;;5023415;28;20030;-73
2021/06/02 12:53:07;;;;;;;4.05;2.35;;;27.50;51.60;;;;;;5006549;28;20040;-73
2021/06/02 12:55:39;;;;;;;5.10;1.90;;;27.70;50.50;;;;;;5007174;28;20044;-79
2021/06/02 12:58:09;;;;;;;6.20;2.05;;;27.60;48.90;;;;;;5008525;28;20049;-80
2021/06/02 13:00:41;;;;;;;6.38;2.50;;;27.50;50.80;;;;;;5014884;28;20105;-80
2021/06/02 13:03:08;;;;;;;4.65;2.17;;;27.60;52.40;;;;;;5013933;28;20109;-83
2021/06/02 13:05:35;;;;;;;3.40;2.28;;;27.50;49.70;;;;;;5011779;28;20427;-78
2021/06/02 13:08:06;;;;;;;5.93;2.22;;;27.50;50.90;;;;;;5014674;28;20081;-78
2021/06/02 13:10:33;;;;;;;5.75;2.20;;;27.50;51.10;;;;;;5027269;28;20030;-80
2021/06/02 13:13:01;;;;;;;5.90;2.20;;;27.40;50.20;;;;;;5019537;28;20028;-79
2021/06/02 13:15:32;;;;;;;4.45;2.25;;;27.30;48.70;;;;;;5017945;28;20112;-79
2021/06/02 13:17:58;;;;;;;4.70;2.20;;;27.20;49.20;;;;;;5031874;28;20040;-77
2021/06/02 13:20:35;;;;;;;3.90;1.88;;;27.10;46.90;;;;;;5033179;28;20002;-78
2021/06/02 13:23:07;;;;;;;5.57;2.17;;;27.40;51.40;;;;;;5030585;28;20025;-78
2021/06/02 13:25:32;;;;;;;4.35;2.30;;;27.30;46.70;;;;;;5019851;28;20032;-73
2021/06/02 13:28:03;;;;;;;3.33;2.13;;;27.10;46.60;;;;;;5012465;28;20117;-73
2021/06/02 13:30:44;;;;;;;3.65;2.20;;;27.00;48.10;;;;;;5010743;28;20022;-73